sensor_id;sensor_type;location;lat;lon;timestamp;temperature;humidity
55083;DHT22;40978;52.850;6.506;2024-02-15T00:00:28;12.30;99.90
55083;DHT22;40978;52.850;6.506;2024-02-15T00:02:54;12.30;99.90
55083;DHT22;40978;52.850;6.506;2024-02-15T00:05:20;12.30;99.90
55083;DHT22;40978;52.850;6.506;2024-02-15T00:07:45;12.30;99.90
55083;DHT22;40978;52.850;6.506;2024-02-15T00:10:14;12.30;99.90
55083;DHT22;40978;52.850;6.506;2024-02-15T00:12:40;12.30;99.90
55083;DHT22;40978;52.850;6.506;2024-02-15T00:15:06;12.30;99.90
55083;DHT22;40978;52.850;6.506;2024-02-15T00:17:33;12.30;99.90
55083;DHT22;40978;52.850;6.506;2024-02-15T00:20:00;12.30;99.90
55083;DHT22;40978;52.850;6.506;2024-02-15T00:22:26;12.20;99.90
55083;DHT22;40978;52.850;6.506;2024-02-15T00:24:52;12.20;99.90
55083;DHT22;40978;52.850;6.506;2024-02-15T00:27:19;12.20;99.90
55083;DHT22;40978;52.850;6.506;2024-02-15T00:29:45;12.30;99.90
55083;DHT22;40978;52.850;6.506;2024-02-15T00:32:11;12.20;99.90
55083;DHT22;40978;52.850;6.506;2024-02-15T00:34:37;12.20;99.90
55083;DHT22;40978;52.850;6.506;2024-02-15T00:37:04;12.20;99.90
55083;DHT22;40978;52.850;6.506;2024-02-15T00:39:31;12.30;99.90
55083;DHT22;40978;52.850;6.506;2024-02-15T00:41:57;12.20;99.90
55083;DHT22;40978;52.850;6.506;2024-02-15T00:44:26;12.20;99.90
55083;DHT22;40978;52.850;6.506;2024-02-15T00:46:51;12.20;99.90
55083;DHT22;40978;52.850;6.506;2024-02-15T00:49:17;12.20;99.90
55083;DHT22;40978;52.850;6.506;2024-02-15T00:51:46;12.20;99.90
55083;DHT22;40978;52.850;6.506;2024-02-15T00:54:12;12.30;99.90
55083;DHT22;40978;52.850;6.506;2024-02-15T00:56:38;12.20;99.90
55083;DHT22;40978;52.850;6.506;2024-02-15T00:59:03;12.20;99.90
55083;DHT22;40978;52.850;6.506;2024-02-15T01:01:30;12.20;99.90
55083;DHT22;40978;52.850;6.506;2024-02-15T01:03:56;12.30;99.90
55083;DHT22;40978;52.850;6.506;2024-02-15T01:06:22;12.30;99.90
55083;DHT22;40978;52.850;6.506;2024-02-15T01:08:48;12.20;99.90
55083;DHT22;40978;52.850;6.506;2024-02-15T01:11:14;12.30;99.90
55083;DHT22;40978;52.850;6.506;2024-02-15T01:13:40;12.20;99.90
55083;DHT22;40978;52.850;6.506;2024-02-15T01:16:06;12.30;99.90
55083;DHT22;40978;52.850;6.506;2024-02-15T01:18:32;12.20;99.90
55083;DHT22;40978;52.850;6.506;2024-02-15T01:20:58;12.20;99.90
55083;DHT22;40978;52.850;6.506;2024-02-15T01:23:24;12.30;99.90
55083;DHT22;40978;52.850;6.506;2024-02-15T01:25:52;12.30;99.90
55083;DHT22;40978;52.850;6.506;2024-02-15T01:28:18;12.30;99.90
55083;DHT22;40978;52.850;6.506;2024-02-15T01:30:43;12.30;99.90
55083;DHT22;40978;52.850;6.506;2024-02-15T01:33:09;12.30;99.90
55083;DHT22;40978;52.850;6.506;2024-02-15T01:35:37;12.20;99.90
55083;DHT22;40978;52.850;6.506;2024-02-15T01:38:03;12.30;99.90
55083;DHT22;40978;52.850;6.506;2024-02-15T01:40:29;12.30;99.90
55083;DHT22;40978;52.850;6.506;2024-02-15T01:42:55;12.30;99.90
55083;DHT22;40978;52.850;6.506;2024-02-15T01:45:21;12.20;99.90
55083;DHT22;40978;52.850;6.506;2024-02-15T01:47:48;12.30;99.90
55083;DHT22;40978;52.850;6.506;2024-02-15T01:50:15;12.30;99.90
55083;DHT22;40978;52.850;6.506;2024-02-15T01:52:43;12.30;99.90
55083;DHT22;40978;52.850;6.506;2024-02-15T01:55:14;12.20;99.90
55083;DHT22;40978;52.850;6.506;2024-02-15T01:57:44;12.30;99.90
55083;DHT22;40978;52.850;6.506;2024-02-15T02:00:15;12.30;99.90
55083;DHT22;40978;52.850;6.506;2024-02-15T02:02:42;12.30;99.90
55083;DHT22;40978;52.850;6.506;2024-02-15T02:05:08;12.30;99.90
55083;DHT22;40978;52.850;6.506;2024-02-15T02:07:34;12.30;99.90
55083;DHT22;40978;52.850;6.506;2024-02-15T02:10:00;12.20;99.90
55083;DHT22;40978;52.850;6.506;2024-02-15T02:12:26;12.30;99.90
55083;DHT22;40978;52.850;6.506;2024-02-15T02:14:56;12.30;99.90
55083;DHT22;40978;52.850;6.506;2024-02-15T02:17:22;12.30;99.90
55083;DHT22;40978;52.850;6.506;2024-02-15T02:19:48;12.30;99.90
55083;DHT22;40978;52.850;6.506;2024-02-15T02:22:17;12.30;99.90
55083;DHT22;40978;52.850;6.506;2024-02-15T02:25:05;12.30;99.90
55083;DHT22;40978;52.850;6.506;2024-02-15T02:27:36;12.30;99.90
55083;DHT22;40978;52.850;6.506;2024-02-15T02:30:11;12.30;99.90
55083;DHT22;40978;52.850;6.506;2024-02-15T02:32:41;12.30;99.90
55083;DHT22;40978;52.850;6.506;2024-02-15T02:35:07;12.30;99.90
55083;DHT22;40978;52.850;6.506;2024-02-15T02:37:33;12.30;99.90
55083;DHT22;40978;52.850;6.506;2024-02-15T02:40:04;12.30;99.90
55083;DHT22;40978;52.850;6.506;2024-02-15T02:42:29;12.30;99.90
55083;DHT22;40978;52.850;6.506;2024-02-15T02:44:55;12.30;99.90
55083;DHT22;40978;52.850;6.506;2024-02-15T02:47:21;12.30;99.90
55083;DHT22;40978;52.850;6.506;2024-02-15T02:49:47;12.30;99.90
55083;DHT22;40978;52.850;6.506;2024-02-15T02:52:13;12.30;99.90
55083;DHT22;40978;52.850;6.506;2024-02-15T02:54:38;12.30;99.90
55083;DHT22;40978;52.850;6.506;2024-02-15T02:57:04;12.30;99.90
55083;DHT22;40978;52.850;6.506;2024-02-15T02:59:33;12.40;99.90
55083;DHT22;40978;52.850;6.506;2024-02-15T03:01:58;12.30;99.90
55083;DHT22;40978;52.850;6.506;2024-02-15T03:04:24;12.40;99.90
55083;DHT22;40978;52.850;6.506;2024-02-15T03:06:50;12.40;99.90
55083;DHT22;40978;52.850;6.506;2024-02-15T03:09:16;12.30;99.90
55083;DHT22;40978;52.850;6.506;2024-02-15T03:11:42;12.30;99.90
55083;DHT22;40978;52.850;6.506;2024-02-15T03:14:08;12.40;99.90
55083;DHT22;40978;52.850;6.506;2024-02-15T03:16:33;12.40;99.90
55083;DHT22;40978;52.850;6.506;2024-02-15T03:18:59;12.40;99.90
55083;DHT22;40978;52.850;6.506;2024-02-15T03:21:28;12.30;99.90
55083;DHT22;40978;52.850;6.506;2024-02-15T03:23:54;12.40;99.90
55083;DHT22;40978;52.850;6.506;2024-02-15T03:26:30;12.40;99.90
55083;DHT22;40978;52.850;6.506;2024-02-15T03:29:13;12.40;99.90
55083;DHT22;40978;52.850;6.506;2024-02-15T03:31:39;12.50;99.90
55083;DHT22;40978;52.850;6.506;2024-02-15T03:34:05;12.50;99.90
55083;DHT22;40978;52.850;6.506;2024-02-15T03:36:31;12.40;99.90
55083;DHT22;40978;52.850;6.506;2024-02-15T03:38:57;12.50;99.90
55083;DHT22;40978;52.850;6.506;2024-02-15T03:41:23;12.50;99.90
55083;DHT22;40978;52.850;6.506;2024-02-15T03:43:49;12.50;99.90
55083;DHT22;40978;52.850;6.506;2024-02-15T03:46:14;12.50;99.90
55083;DHT22;40978;52.850;6.506;2024-02-15T03:48:43;12.60;99.90
55083;DHT22;40978;52.850;6.506;2024-02-15T03:51:16;12.50;99.90
55083;DHT22;40978;52.850;6.506;2024-02-15T03:53:44;12.50;99.90
55083;DHT22;40978;52.850;6.506;2024-02-15T03:56:10;12.50;99.90
55083;DHT22;40978;52.850;6.506;2024-02-15T03:58:35;12.60;99.90
55083;DHT22;40978;52.850;6.506;2024-02-15T04:01:03;12.50;99.90
55083;DHT22;40978;52.850;6.506;2024-02-15T04:03:32;12.50;99.90
55083;DHT22;40978;52.850;6.506;2024-02-15T04:05:59;12.50;99.90
55083;DHT22;40978;52.850;6.506;2024-02-15T04:08:25;12.50;99.90
55083;DHT22;40978;52.850;6.506;2024-02-15T04:10:52;12.50;99.90
55083;DHT22;40978;52.850;6.506;2024-02-15T04:13:17;12.50;99.90
55083;DHT22;40978;52.850;6.506;2024-02-15T04:15:43;12.50;99.90
55083;DHT22;40978;52.850;6.506;2024-02-15T04:18:09;12.50;99.90
55083;DHT22;40978;52.850;6.506;2024-02-15T04:20:36;12.50;99.90
55083;DHT22;40978;52.850;6.506;2024-02-15T04:23:02;12.50;99.90
55083;DHT22;40978;52.850;6.506;2024-02-15T04:25:28;12.50;99.90
55083;DHT22;40978;52.850;6.506;2024-02-15T04:27:54;12.50;99.90
55083;DHT22;40978;52.850;6.506;2024-02-15T04:30:20;12.50;99.90
55083;DHT22;40978;52.850;6.506;2024-02-15T04:32:46;12.60;99.90
55083;DHT22;40978;52.850;6.506;2024-02-15T04:35:12;12.60;99.90
55083;DHT22;40978;52.850;6.506;2024-02-15T04:37:39;12.60;99.90
55083;DHT22;40978;52.850;6.506;2024-02-15T04:40:06;12.60;99.90
55083;DHT22;40978;52.850;6.506;2024-02-15T04:42:36;12.50;99.90
55083;DHT22;40978;52.850;6.506;2024-02-15T04:45:05;12.50;99.90
55083;DHT22;40978;52.850;6.506;2024-02-15T04:47:36;12.50;99.90
55083;DHT22;40978;52.850;6.506;2024-02-15T04:50:02;12.50;99.90
55083;DHT22;40978;52.850;6.506;2024-02-15T04:52:29;12.50;99.90
55083;DHT22;40978;52.850;6.506;2024-02-15T04:54:55;12.50;99.90
55083;DHT22;40978;52.850;6.506;2024-02-15T04:57:26;12.60;99.90
55083;DHT22;40978;52.850;6.506;2024-02-15T04:59:55;12.50;99.90
55083;DHT22;40978;52.850;6.506;2024-02-15T05:02:21;12.50;99.90
55083;DHT22;40978;52.850;6.506;2024-02-15T05:04:50;12.50;99.90
55083;DHT22;40978;52.850;6.506;2024-02-15T05:07:21;12.60;99.90
55083;DHT22;40978;52.850;6.506;2024-02-15T05:09:48;12.50;99.90
55083;DHT22;40978;52.850;6.506;2024-02-15T05:12:22;12.60;99.90
55083;DHT22;40978;52.850;6.506;2024-02-15T05:14:49;12.50;99.90
55083;DHT22;40978;52.850;6.506;2024-02-15T05:17:19;12.50;99.90
55083;DHT22;40978;52.850;6.506;2024-02-15T05:19:44;12.50;99.90
55083;DHT22;40978;52.850;6.506;2024-02-15T05:22:10;12.50;99.90
55083;DHT22;40978;52.850;6.506;2024-02-15T05:24:37;12.50;99.90
55083;DHT22;40978;52.850;6.506;2024-02-15T05:27:04;12.50;99.90
55083;DHT22;40978;52.850;6.506;2024-02-15T05:29:31;12.50;99.90
55083;DHT22;40978;52.850;6.506;2024-02-15T05:32:00;12.50;99.90
55083;DHT22;40978;52.850;6.506;2024-02-15T05:34:26;12.50;99.90
55083;DHT22;40978;52.850;6.506;2024-02-15T05:36:52;12.50;99.90
55083;DHT22;40978;52.850;6.506;2024-02-15T05:39:18;12.50;99.90
55083;DHT22;40978;52.850;6.506;2024-02-15T05:41:47;12.50;99.90
55083;DHT22;40978;52.850;6.506;2024-02-15T05:44:13;12.50;99.90
55083;DHT22;40978;52.850;6.506;2024-02-15T05:46:44;12.40;99.90
55083;DHT22;40978;52.850;6.506;2024-02-15T05:49:10;12.50;99.90
55083;DHT22;40978;52.850;6.506;2024-02-15T05:51:41;12.50;99.90
55083;DHT22;40978;52.850;6.506;2024-02-15T05:54:07;12.50;99.90
55083;DHT22;40978;52.850;6.506;2024-02-15T05:56:32;12.50;99.90
55083;DHT22;40978;52.850;6.506;2024-02-15T05:58:58;12.50;99.90
55083;DHT22;40978;52.850;6.506;2024-02-15T06:01:24;12.50;99.90
55083;DHT22;40978;52.850;6.506;2024-02-15T06:03:50;12.50;99.90
55083;DHT22;40978;52.850;6.506;2024-02-15T06:06:20;12.50;99.90
55083;DHT22;40978;52.850;6.506;2024-02-15T06:08:46;12.50;99.90
55083;DHT22;40978;52.850;6.506;2024-02-15T06:11:12;12.60;99.90
55083;DHT22;40978;52.850;6.506;2024-02-15T06:13:40;12.60;99.90
55083;DHT22;40978;52.850;6.506;2024-02-15T06:16:06;12.60;99.90
55083;DHT22;40978;52.850;6.506;2024-02-15T06:18:35;12.60;99.90
55083;DHT22;40978;52.850;6.506;2024-02-15T06:21:01;12.60;99.90
55083;DHT22;40978;52.850;6.506;2024-02-15T06:23:27;12.60;99.90
55083;DHT22;40978;52.850;6.506;2024-02-15T06:25:55;12.60;99.90
55083;DHT22;40978;52.850;6.506;2024-02-15T06:28:24;12.60;99.90
55083;DHT22;40978;52.850;6.506;2024-02-15T06:31:09;12.60;99.90
55083;DHT22;40978;52.850;6.506;2024-02-15T06:33:54;12.70;99.90
55083;DHT22;40978;52.850;6.506;2024-02-15T06:36:52;12.70;99.90
55083;DHT22;40978;52.850;6.506;2024-02-15T06:39:36;12.60;99.90
55083;DHT22;40978;52.850;6.506;2024-02-15T06:42:13;12.60;99.90
55083;DHT22;40978;52.850;6.506;2024-02-15T06:44:47;12.70;99.90
55083;DHT22;40978;52.850;6.506;2024-02-15T06:47:13;12.60;99.90
55083;DHT22;40978;52.850;6.506;2024-02-15T06:52:42;12.70;99.90
55083;DHT22;40978;52.850;6.506;2024-02-15T06:55:09;12.60;99.90
55083;DHT22;40978;52.850;6.506;2024-02-15T06:57:38;12.60;99.90
55083;DHT22;40978;52.850;6.506;2024-02-15T07:00:07;12.70;99.90
55083;DHT22;40978;52.850;6.506;2024-02-15T07:02:36;12.70;99.90
55083;DHT22;40978;52.850;6.506;2024-02-15T07:05:02;12.60;99.90
55083;DHT22;40978;52.850;6.506;2024-02-15T07:07:28;12.70;99.90
55083;DHT22;40978;52.850;6.506;2024-02-15T07:09:54;12.70;99.90
55083;DHT22;40978;52.850;6.506;2024-02-15T07:12:20;12.70;99.90
55083;DHT22;40978;52.850;6.506;2024-02-15T07:14:47;12.60;99.90
55083;DHT22;40978;52.850;6.506;2024-02-15T07:17:13;12.70;99.90
55083;DHT22;40978;52.850;6.506;2024-02-15T07:19:45;12.70;99.90
55083;DHT22;40978;52.850;6.506;2024-02-15T07:22:15;12.70;99.90
55083;DHT22;40978;52.850;6.506;2024-02-15T07:24:42;12.70;99.90
55083;DHT22;40978;52.850;6.506;2024-02-15T07:27:08;12.70;99.90
55083;DHT22;40978;52.850;6.506;2024-02-15T07:29:34;12.70;99.90
55083;DHT22;40978;52.850;6.506;2024-02-15T07:32:06;12.70;99.90
55083;DHT22;40978;52.850;6.506;2024-02-15T07:34:33;12.70;99.90
55083;DHT22;40978;52.850;6.506;2024-02-15T07:37:01;12.70;99.90
55083;DHT22;40978;52.850;6.506;2024-02-15T07:39:27;12.70;99.90
55083;DHT22;40978;52.850;6.506;2024-02-15T07:41:56;12.70;99.90
55083;DHT22;40978;52.850;6.506;2024-02-15T07:44:25;12.60;99.90
55083;DHT22;40978;52.850;6.506;2024-02-15T07:46:52;12.70;99.90
55083;DHT22;40978;52.850;6.506;2024-02-15T07:49:18;12.70;99.90
55083;DHT22;40978;52.850;6.506;2024-02-15T07:51:44;12.70;99.90
55083;DHT22;40978;52.850;6.506;2024-02-15T07:54:11;12.70;99.90
55083;DHT22;40978;52.850;6.506;2024-02-15T07:56:37;12.80;99.90
55083;DHT22;40978;52.850;6.506;2024-02-15T07:59:04;12.70;99.90
55083;DHT22;40978;52.850;6.506;2024-02-15T08:01:29;12.80;99.90
55083;DHT22;40978;52.850;6.506;2024-02-15T08:03:56;12.80;99.90
55083;DHT22;40978;52.850;6.506;2024-02-15T08:06:22;12.70;99.90
55083;DHT22;40978;52.850;6.506;2024-02-15T08:08:53;12.70;99.90
55083;DHT22;40978;52.850;6.506;2024-02-15T08:11:19;12.80;99.90
55083;DHT22;40978;52.850;6.506;2024-02-15T08:13:49;12.70;99.90
55083;DHT22;40978;52.850;6.506;2024-02-15T08:16:19;12.70;99.90
55083;DHT22;40978;52.850;6.506;2024-02-15T08:18:46;12.70;99.90
55083;DHT22;40978;52.850;6.506;2024-02-15T08:21:12;12.70;99.90
55083;DHT22;40978;52.850;6.506;2024-02-15T08:23:39;12.80;99.90
55083;DHT22;40978;52.850;6.506;2024-02-15T08:26:05;12.80;99.90
55083;DHT22;40978;52.850;6.506;2024-02-15T08:28:31;12.70;99.90
55083;DHT22;40978;52.850;6.506;2024-02-15T08:30:57;12.80;99.90
55083;DHT22;40978;52.850;6.506;2024-02-15T08:33:23;12.80;99.90
55083;DHT22;40978;52.850;6.506;2024-02-15T08:35:49;12.80;99.90
55083;DHT22;40978;52.850;6.506;2024-02-15T08:38:15;12.70;99.90
55083;DHT22;40978;52.850;6.506;2024-02-15T08:40:42;12.80;99.90
55083;DHT22;40978;52.850;6.506;2024-02-15T08:43:09;12.80;99.90
55083;DHT22;40978;52.850;6.506;2024-02-15T08:45:35;12.80;99.90
55083;DHT22;40978;52.850;6.506;2024-02-15T08:48:01;12.80;99.90
55083;DHT22;40978;52.850;6.506;2024-02-15T08:50:30;12.90;99.90
55083;DHT22;40978;52.850;6.506;2024-02-15T08:52:56;12.80;99.90
55083;DHT22;40978;52.850;6.506;2024-02-15T08:55:22;12.80;99.90
55083;DHT22;40978;52.850;6.506;2024-02-15T08:57:55;12.90;99.90
55083;DHT22;40978;52.850;6.506;2024-02-15T09:00:21;12.90;99.90
55083;DHT22;40978;52.850;6.506;2024-02-15T09:02:47;12.90;99.90
55083;DHT22;40978;52.850;6.506;2024-02-15T09:05:14;12.90;99.90
55083;DHT22;40978;52.850;6.506;2024-02-15T09:07:41;12.90;99.90
55083;DHT22;40978;52.850;6.506;2024-02-15T09:10:09;12.90;99.90
55083;DHT22;40978;52.850;6.506;2024-02-15T09:12:36;12.90;99.90
55083;DHT22;40978;52.850;6.506;2024-02-15T09:15:09;12.90;99.90
55083;DHT22;40978;52.850;6.506;2024-02-15T09:17:36;13.00;99.90
55083;DHT22;40978;52.850;6.506;2024-02-15T09:20:09;13.00;99.90
55083;DHT22;40978;52.850;6.506;2024-02-15T09:22:50;13.00;99.90
55083;DHT22;40978;52.850;6.506;2024-02-15T09:25:20;13.10;99.90
55083;DHT22;40978;52.850;6.506;2024-02-15T09:27:46;13.00;99.90
55083;DHT22;40978;52.850;6.506;2024-02-15T09:30:12;13.10;99.90
55083;DHT22;40978;52.850;6.506;2024-02-15T09:32:39;13.00;99.90
55083;DHT22;40978;52.850;6.506;2024-02-15T09:35:06;13.00;99.90
55083;DHT22;40978;52.850;6.506;2024-02-15T09:37:35;13.10;99.90
55083;DHT22;40978;52.850;6.506;2024-02-15T09:40:02;13.00;99.90
55083;DHT22;40978;52.850;6.506;2024-02-15T09:42:33;13.10;99.90
55083;DHT22;40978;52.850;6.506;2024-02-15T09:45:02;13.10;99.90
55083;DHT22;40978;52.850;6.506;2024-02-15T09:47:35;13.20;99.90
55083;DHT22;40978;52.850;6.506;2024-02-15T09:50:18;13.10;99.90
55083;DHT22;40978;52.850;6.506;2024-02-15T09:52:48;13.20;99.90
55083;DHT22;40978;52.850;6.506;2024-02-15T09:55:14;13.20;99.90
55083;DHT22;40978;52.850;6.506;2024-02-15T09:57:43;13.30;99.90
55083;DHT22;40978;52.850;6.506;2024-02-15T10:00:10;13.20;99.90
55083;DHT22;40978;52.850;6.506;2024-02-15T10:02:52;13.20;99.90
55083;DHT22;40978;52.850;6.506;2024-02-15T10:05:19;13.30;99.90
55083;DHT22;40978;52.850;6.506;2024-02-15T10:07:46;13.30;99.90
55083;DHT22;40978;52.850;6.506;2024-02-15T10:12:54;13.30;99.90
55083;DHT22;40978;52.850;6.506;2024-02-15T10:15:39;13.30;99.90
55083;DHT22;40978;52.850;6.506;2024-02-15T10:18:10;13.40;99.90
55083;DHT22;40978;52.850;6.506;2024-02-15T10:20:38;13.40;99.90
55083;DHT22;40978;52.850;6.506;2024-02-15T10:23:08;13.40;99.90
55083;DHT22;40978;52.850;6.506;2024-02-15T10:25:35;13.50;99.90
55083;DHT22;40978;52.850;6.506;2024-02-15T10:28:14;13.50;99.90
55083;DHT22;40978;52.850;6.506;2024-02-15T10:30:44;13.50;99.90
55083;DHT22;40978;52.850;6.506;2024-02-15T10:33:28;13.60;99.90
55083;DHT22;40978;52.850;6.506;2024-02-15T10:36:07;13.70;99.90
55083;DHT22;40978;52.850;6.506;2024-02-15T10:38:33;13.70;99.90
55083;DHT22;40978;52.850;6.506;2024-02-15T10:41:08;13.70;99.90
55083;DHT22;40978;52.850;6.506;2024-02-15T10:43:36;13.80;99.90
55083;DHT22;40978;52.850;6.506;2024-02-15T10:46:05;13.70;99.90
55083;DHT22;40978;52.850;6.506;2024-02-15T10:48:35;13.70;99.90
55083;DHT22;40978;52.850;6.506;2024-02-15T10:51:03;13.80;99.90
55083;DHT22;40978;52.850;6.506;2024-02-15T10:53:35;13.80;99.90
55083;DHT22;40978;52.850;6.506;2024-02-15T10:56:18;13.90;99.90
55083;DHT22;40978;52.850;6.506;2024-02-15T10:59:17;13.90;99.90
55083;DHT22;40978;52.850;6.506;2024-02-15T11:01:45;13.90;99.90
55083;DHT22;40978;52.850;6.506;2024-02-15T11:04:14;13.90;99.90
55083;DHT22;40978;52.850;6.506;2024-02-15T11:06:42;13.90;99.90
55083;DHT22;40978;52.850;6.506;2024-02-15T11:09:10;13.90;99.90
55083;DHT22;40978;52.850;6.506;2024-02-15T11:11:38;13.90;99.90
55083;DHT22;40978;52.850;6.506;2024-02-15T11:14:26;13.90;99.90
55083;DHT22;40978;52.850;6.506;2024-02-15T11:17:00;13.90;99.90
55083;DHT22;40978;52.850;6.506;2024-02-15T11:22:22;13.90;99.90
55083;DHT22;40978;52.850;6.506;2024-02-15T11:24:51;13.90;99.90
55083;DHT22;40978;52.850;6.506;2024-02-15T11:27:28;13.80;99.90
55083;DHT22;40978;52.850;6.506;2024-02-15T11:30:01;13.90;99.90
55083;DHT22;40978;52.850;6.506;2024-02-15T11:32:47;13.90;99.90
55083;DHT22;40978;52.850;6.506;2024-02-15T11:35:25;13.90;99.90
55083;DHT22;40978;52.850;6.506;2024-02-15T11:40:26;13.90;99.90
55083;DHT22;40978;52.850;6.506;2024-02-15T11:42:59;13.80;99.90
55083;DHT22;40978;52.850;6.506;2024-02-15T11:45:29;13.90;99.90
55083;DHT22;40978;52.850;6.506;2024-02-15T11:48:13;13.90;99.90
55083;DHT22;40978;52.850;6.506;2024-02-15T11:50:39;13.90;99.90
55083;DHT22;40978;52.850;6.506;2024-02-15T11:53:06;13.90;99.90
55083;DHT22;40978;52.850;6.506;2024-02-15T11:55:36;13.80;99.90
55083;DHT22;40978;52.850;6.506;2024-02-15T11:58:04;13.80;99.90
55083;DHT22;40978;52.850;6.506;2024-02-15T12:00:37;13.90;99.90
55083;DHT22;40978;52.850;6.506;2024-02-15T12:03:22;13.90;99.90
55083;DHT22;40978;52.850;6.506;2024-02-15T12:06:07;13.80;99.90
55083;DHT22;40978;52.850;6.506;2024-02-15T12:08:53;13.80;99.90
55083;DHT22;40978;52.850;6.506;2024-02-15T12:11:38;13.80;99.90
55083;DHT22;40978;52.850;6.506;2024-02-15T12:14:23;13.80;99.90
55083;DHT22;40978;52.850;6.506;2024-02-15T12:17:09;13.80;99.90
55083;DHT22;40978;52.850;6.506;2024-02-15T12:19:55;13.80;99.90
55083;DHT22;40978;52.850;6.506;2024-02-15T12:22:33;13.70;99.90
55083;DHT22;40978;52.850;6.506;2024-02-15T12:25:01;13.70;99.90
55083;DHT22;40978;52.850;6.506;2024-02-15T12:27:35;13.70;99.90
55083;DHT22;40978;52.850;6.506;2024-02-15T12:30:00;13.60;99.90
55083;DHT22;40978;52.850;6.506;2024-02-15T12:32:27;13.70;99.90
55083;DHT22;40978;52.850;6.506;2024-02-15T12:35:12;13.70;99.90
55083;DHT22;40978;52.850;6.506;2024-02-15T12:37:43;13.70;99.90
55083;DHT22;40978;52.850;6.506;2024-02-15T12:40:19;13.70;99.90
55083;DHT22;40978;52.850;6.506;2024-02-15T12:42:46;13.70;99.90
55083;DHT22;40978;52.850;6.506;2024-02-15T12:45:20;13.60;99.90
55083;DHT22;40978;52.850;6.506;2024-02-15T12:47:52;13.70;99.90
55083;DHT22;40978;52.850;6.506;2024-02-15T12:50:20;13.60;99.90
55083;DHT22;40978;52.850;6.506;2024-02-15T12:52:47;13.70;99.90
55083;DHT22;40978;52.850;6.506;2024-02-15T12:57:53;13.70;99.90
55083;DHT22;40978;52.850;6.506;2024-02-15T13:00:22;13.70;99.90
55083;DHT22;40978;52.850;6.506;2024-02-15T13:02:49;13.60;99.90
55083;DHT22;40978;52.850;6.506;2024-02-15T13:05:18;13.70;99.90
55083;DHT22;40978;52.850;6.506;2024-02-15T13:07:48;13.60;99.90
55083;DHT22;40978;52.850;6.506;2024-02-15T13:10:14;13.60;99.90
55083;DHT22;40978;52.850;6.506;2024-02-15T13:12:46;13.70;99.90
55083;DHT22;40978;52.850;6.506;2024-02-15T13:15:13;13.60;99.90
55083;DHT22;40978;52.850;6.506;2024-02-15T13:17:50;13.60;99.90
55083;DHT22;40978;52.850;6.506;2024-02-15T13:20:22;13.60;99.90
55083;DHT22;40978;52.850;6.506;2024-02-15T13:22:59;13.60;99.90
55083;DHT22;40978;52.850;6.506;2024-02-15T13:25:29;13.60;99.90
55083;DHT22;40978;52.850;6.506;2024-02-15T13:27:56;13.60;99.90
55083;DHT22;40978;52.850;6.506;2024-02-15T13:30:23;13.60;99.90
55083;DHT22;40978;52.850;6.506;2024-02-15T13:32:53;13.60;99.90
55083;DHT22;40978;52.850;6.506;2024-02-15T13:35:20;13.60;99.90
55083;DHT22;40978;52.850;6.506;2024-02-15T13:37:50;13.60;99.90
55083;DHT22;40978;52.850;6.506;2024-02-15T13:40:22;13.60;99.90
55083;DHT22;40978;52.850;6.506;2024-02-15T13:42:54;13.60;99.90
55083;DHT22;40978;52.850;6.506;2024-02-15T13:47:56;13.60;99.90
55083;DHT22;40978;52.850;6.506;2024-02-15T13:50:23;13.60;99.90
55083;DHT22;40978;52.850;6.506;2024-02-15T13:52:49;13.50;99.90
55083;DHT22;40978;52.850;6.506;2024-02-15T13:55:18;13.50;99.90
55083;DHT22;40978;52.850;6.506;2024-02-15T13:57:45;13.60;99.90
55083;DHT22;40978;52.850;6.506;2024-02-15T14:00:16;13.60;99.90
55083;DHT22;40978;52.850;6.506;2024-02-15T14:02:51;13.60;99.90
55083;DHT22;40978;52.850;6.506;2024-02-15T14:05:18;13.60;99.90
55083;DHT22;40978;52.850;6.506;2024-02-15T14:07:49;13.60;99.90
55083;DHT22;40978;52.850;6.506;2024-02-15T14:10:19;13.60;99.90
55083;DHT22;40978;52.850;6.506;2024-02-15T14:12:50;13.60;99.90
55083;DHT22;40978;52.850;6.506;2024-02-15T14:15:36;13.60;99.90
55083;DHT22;40978;52.850;6.506;2024-02-15T14:18:10;13.70;99.90
55083;DHT22;40978;52.850;6.506;2024-02-15T14:20:41;13.70;99.90
55083;DHT22;40978;52.850;6.506;2024-02-15T14:23:13;13.70;99.90
55083;DHT22;40978;52.850;6.506;2024-02-15T14:25:43;13.70;99.90
55083;DHT22;40978;52.850;6.506;2024-02-15T14:28:10;13.80;99.90
55083;DHT22;40978;52.850;6.506;2024-02-15T14:30:36;13.80;99.90
55083;DHT22;40978;52.850;6.506;2024-02-15T14:33:21;13.70;99.90
55083;DHT22;40978;52.850;6.506;2024-02-15T14:35:48;13.80;99.90
55083;DHT22;40978;52.850;6.506;2024-02-15T14:38:15;13.80;99.90
55083;DHT22;40978;52.850;6.506;2024-02-15T14:40:43;13.80;99.90
55083;DHT22;40978;52.850;6.506;2024-02-15T14:43:31;13.90;99.90
55083;DHT22;40978;52.850;6.506;2024-02-15T14:45:57;13.90;99.90
55083;DHT22;40978;52.850;6.506;2024-02-15T14:48:23;14.00;99.90
55083;DHT22;40978;52.850;6.506;2024-02-15T14:50:49;14.00;99.90
55083;DHT22;40978;52.850;6.506;2024-02-15T14:53:16;14.00;99.90
55083;DHT22;40978;52.850;6.506;2024-02-15T14:55:43;14.10;99.90
55083;DHT22;40978;52.850;6.506;2024-02-15T14:58:12;14.10;99.90
55083;DHT22;40978;52.850;6.506;2024-02-15T15:00:39;14.10;99.90
55083;DHT22;40978;52.850;6.506;2024-02-15T15:03:07;14.00;99.90
55083;DHT22;40978;52.850;6.506;2024-02-15T15:05:33;14.10;99.90
55083;DHT22;40978;52.850;6.506;2024-02-15T15:08:17;14.10;99.90
55083;DHT22;40978;52.850;6.506;2024-02-15T15:11:01;14.10;99.90
55083;DHT22;40978;52.850;6.506;2024-02-15T15:13:45;14.10;99.90
55083;DHT22;40978;52.850;6.506;2024-02-15T15:16:11;14.10;99.90
55083;DHT22;40978;52.850;6.506;2024-02-15T15:18:40;14.10;99.90
55083;DHT22;40978;52.850;6.506;2024-02-15T15:21:06;14.10;99.90
55083;DHT22;40978;52.850;6.506;2024-02-15T15:23:32;14.10;99.90
55083;DHT22;40978;52.850;6.506;2024-02-15T15:26:00;14.10;99.90
55083;DHT22;40978;52.850;6.506;2024-02-15T15:28:27;14.10;99.90
55083;DHT22;40978;52.850;6.506;2024-02-15T15:30:53;14.10;99.90
55083;DHT22;40978;52.850;6.506;2024-02-15T15:33:20;14.00;99.90
55083;DHT22;40978;52.850;6.506;2024-02-15T15:35:47;14.10;99.90
55083;DHT22;40978;52.850;6.506;2024-02-15T15:38:14;14.00;99.90
55083;DHT22;40978;52.850;6.506;2024-02-15T15:40:40;14.00;99.90
55083;DHT22;40978;52.850;6.506;2024-02-15T15:43:07;14.00;99.90
55083;DHT22;40978;52.850;6.506;2024-02-15T15:45:36;14.00;99.90
55083;DHT22;40978;52.850;6.506;2024-02-15T15:48:02;14.00;99.90
55083;DHT22;40978;52.850;6.506;2024-02-15T15:50:29;14.00;99.90
55083;DHT22;40978;52.850;6.506;2024-02-15T15:53:04;13.90;99.90
55083;DHT22;40978;52.850;6.506;2024-02-15T15:55:30;13.90;99.90
55083;DHT22;40978;52.850;6.506;2024-02-15T15:57:56;13.90;99.90